sensor_id;sensor_type;location;lat;lon;timestamp;temperature;humidity
16384;DHT22;8301;51.440;6.610;2023-03-31T00:01:53;10.40;99.90
16384;DHT22;8301;51.440;6.610;2023-03-31T00:04:21;10.30;99.90
16384;DHT22;8301;51.440;6.610;2023-03-31T00:06:48;10.30;99.90
16384;DHT22;8301;51.440;6.610;2023-03-31T00:09:17;10.30;99.90
16384;DHT22;8301;51.440;6.610;2023-03-31T00:11:45;10.30;99.90
16384;DHT22;8301;51.440;6.610;2023-03-31T00:14:12;10.40;99.90
16384;DHT22;8301;51.440;6.610;2023-03-31T00:16:41;10.40;99.90
16384;DHT22;8301;51.440;6.610;2023-03-31T00:19:08;10.40;99.90
16384;DHT22;8301;51.440;6.610;2023-03-31T00:21:37;10.40;99.90
16384;DHT22;8301;51.440;6.610;2023-03-31T00:24:05;10.50;99.90
16384;DHT22;8301;51.440;6.610;2023-03-31T00:26:33;10.50;99.90
16384;DHT22;8301;51.440;6.610;2023-03-31T00:29:02;10.50;99.90
16384;DHT22;8301;51.440;6.610;2023-03-31T00:31:29;10.50;99.90
16384;DHT22;8301;51.440;6.610;2023-03-31T00:33:56;10.60;99.90
16384;DHT22;8301;51.440;6.610;2023-03-31T00:36:24;10.60;99.90
16384;DHT22;8301;51.440;6.610;2023-03-31T00:38:54;10.60;99.90
16384;DHT22;8301;51.440;6.610;2023-03-31T00:41:23;10.60;99.90
16384;DHT22;8301;51.440;6.610;2023-03-31T00:49:22;10.60;99.90
16384;DHT22;8301;51.440;6.610;2023-03-31T00:51:49;10.60;99.90
16384;DHT22;8301;51.440;6.610;2023-03-31T00:54:20;10.50;99.90
16384;DHT22;8301;51.440;6.610;2023-03-31T00:56:51;10.50;99.90
16384;DHT22;8301;51.440;6.610;2023-03-31T00:59:20;10.50;99.90
16384;DHT22;8301;51.440;6.610;2023-03-31T01:01:48;10.50;99.90
16384;DHT22;8301;51.440;6.610;2023-03-31T01:04:15;10.40;99.90
16384;DHT22;8301;51.440;6.610;2023-03-31T01:06:49;10.40;99.90
16384;DHT22;8301;51.440;6.610;2023-03-31T01:09:15;10.40;99.90
16384;DHT22;8301;51.440;6.610;2023-03-31T01:11:43;10.30;99.90
16384;DHT22;8301;51.440;6.610;2023-03-31T01:14:11;10.30;99.90
16384;DHT22;8301;51.440;6.610;2023-03-31T01:16:38;10.20;99.90
16384;DHT22;8301;51.440;6.610;2023-03-31T01:19:11;10.20;99.90
16384;DHT22;8301;51.440;6.610;2023-03-31T01:25:12;10.20;99.90
16384;DHT22;8301;51.440;6.610;2023-03-31T01:27:00;10.20;99.90
16384;DHT22;8301;51.440;6.610;2023-03-31T01:40:18;10.20;99.90
16384;DHT22;8301;51.440;6.610;2023-03-31T01:42:56;10.20;99.90
16384;DHT22;8301;51.440;6.610;2023-03-31T01:48:01;10.10;99.90
16384;DHT22;8301;51.440;6.610;2023-03-31T01:50:28;10.10;99.90
16384;DHT22;8301;51.440;6.610;2023-03-31T01:52:58;10.10;99.90
16384;DHT22;8301;51.440;6.610;2023-03-31T01:55:25;10.10;99.90
16384;DHT22;8301;51.440;6.610;2023-03-31T01:57:59;10.10;99.90
16384;DHT22;8301;51.440;6.610;2023-03-31T02:00:27;10.10;99.90
16384;DHT22;8301;51.440;6.610;2023-03-31T02:03:01;10.10;99.90
16384;DHT22;8301;51.440;6.610;2023-03-31T02:05:44;10.10;99.90
16384;DHT22;8301;51.440;6.610;2023-03-31T02:08:16;10.10;99.90
16384;DHT22;8301;51.440;6.610;2023-03-31T02:10:40;10.10;99.90
16384;DHT22;8301;51.440;6.610;2023-03-31T02:13:07;10.10;99.90
16384;DHT22;8301;51.440;6.610;2023-03-31T02:15:36;10.10;99.90
16384;DHT22;8301;51.440;6.610;2023-03-31T02:18:04;10.10;99.90
16384;DHT22;8301;51.440;6.610;2023-03-31T02:20:34;10.10;99.90
16384;DHT22;8301;51.440;6.610;2023-03-31T02:23:01;10.10;99.90
16384;DHT22;8301;51.440;6.610;2023-03-31T02:25:32;10.10;99.90
16384;DHT22;8301;51.440;6.610;2023-03-31T02:28:06;10.10;99.90
16384;DHT22;8301;51.440;6.610;2023-03-31T02:30:32;10.20;99.90
16384;DHT22;8301;51.440;6.610;2023-03-31T02:32:56;10.20;99.90
16384;DHT22;8301;51.440;6.610;2023-03-31T02:35:25;10.20;99.90
16384;DHT22;8301;51.440;6.610;2023-03-31T02:37:54;10.20;99.90
16384;DHT22;8301;51.440;6.610;2023-03-31T02:40:22;10.20;99.90
16384;DHT22;8301;51.440;6.610;2023-03-31T02:42:50;10.20;99.90
16384;DHT22;8301;51.440;6.610;2023-03-31T02:48:03;10.30;99.90
16384;DHT22;8301;51.440;6.610;2023-03-31T02:50:33;10.30;99.90
16384;DHT22;8301;51.440;6.610;2023-03-31T02:53:09;10.30;99.90
16384;DHT22;8301;51.440;6.610;2023-03-31T03:00:56;10.30;99.90
16384;DHT22;8301;51.440;6.610;2023-03-31T03:11:03;10.40;99.90
16384;DHT22;8301;51.440;6.610;2023-03-31T03:15:54;10.40;99.90
16384;DHT22;8301;51.440;6.610;2023-03-31T03:18:20;10.40;99.90
16384;DHT22;8301;51.440;6.610;2023-03-31T03:20:47;10.40;99.90
16384;DHT22;8301;51.440;6.610;2023-03-31T03:23:15;10.40;99.90
16384;DHT22;8301;51.440;6.610;2023-03-31T03:25:43;10.40;99.90
16384;DHT22;8301;51.440;6.610;2023-03-31T03:28:11;10.40;99.90
16384;DHT22;8301;51.440;6.610;2023-03-31T03:30:37;10.40;99.90
16384;DHT22;8301;51.440;6.610;2023-03-31T03:33:10;10.40;99.90
16384;DHT22;8301;51.440;6.610;2023-03-31T03:35:38;10.40;99.90
16384;DHT22;8301;51.440;6.610;2023-03-31T03:38:05;10.40;99.90
16384;DHT22;8301;51.440;6.610;2023-03-31T03:40:32;10.40;99.90
16384;DHT22;8301;51.440;6.610;2023-03-31T03:42:59;10.40;99.90
16384;DHT22;8301;51.440;6.610;2023-03-31T03:45:26;10.50;99.90
16384;DHT22;8301;51.440;6.610;2023-03-31T03:47:52;10.50;99.90
16384;DHT22;8301;51.440;6.610;2023-03-31T03:50:19;10.40;99.90
16384;DHT22;8301;51.440;6.610;2023-03-31T03:52:46;10.50;99.90
16384;DHT22;8301;51.440;6.610;2023-03-31T03:55:13;10.50;99.90
16384;DHT22;8301;51.440;6.610;2023-03-31T03:57:39;10.50;99.90
16384;DHT22;8301;51.440;6.610;2023-03-31T04:00:07;10.40;99.90
16384;DHT22;8301;51.440;6.610;2023-03-31T04:02:37;10.40;99.90
16384;DHT22;8301;51.440;6.610;2023-03-31T04:05:04;10.40;99.90
16384;DHT22;8301;51.440;6.610;2023-03-31T04:07:31;10.40;99.90
16384;DHT22;8301;51.440;6.610;2023-03-31T04:09:58;10.40;99.90
16384;DHT22;8301;51.440;6.610;2023-03-31T04:12:24;10.40;99.90
16384;DHT22;8301;51.440;6.610;2023-03-31T04:14:51;10.40;99.90
16384;DHT22;8301;51.440;6.610;2023-03-31T04:17:18;10.40;99.90
16384;DHT22;8301;51.440;6.610;2023-03-31T04:19:56;10.40;99.90
16384;DHT22;8301;51.440;6.610;2023-03-31T04:22:24;10.30;99.90
16384;DHT22;8301;51.440;6.610;2023-03-31T04:24:53;10.30;99.90
16384;DHT22;8301;51.440;6.610;2023-03-31T04:27:22;10.30;99.90
16384;DHT22;8301;51.440;6.610;2023-03-31T04:29:50;10.30;99.90
16384;DHT22;8301;51.440;6.610;2023-03-31T04:32:23;10.30;99.90
16384;DHT22;8301;51.440;6.610;2023-03-31T04:34:47;10.30;99.90
16384;DHT22;8301;51.440;6.610;2023-03-31T04:37:15;10.30;99.90
16384;DHT22;8301;51.440;6.610;2023-03-31T04:39:42;10.30;99.90
16384;DHT22;8301;51.440;6.610;2023-03-31T04:42:11;10.30;99.90
16384;DHT22;8301;51.440;6.610;2023-03-31T04:44:38;10.30;99.90
16384;DHT22;8301;51.440;6.610;2023-03-31T04:47:05;10.30;99.90
16384;DHT22;8301;51.440;6.610;2023-03-31T04:49:31;10.30;99.90
16384;DHT22;8301;51.440;6.610;2023-03-31T04:51:58;10.30;99.90
16384;DHT22;8301;51.440;6.610;2023-03-31T04:54:25;10.30;99.90
16384;DHT22;8301;51.440;6.610;2023-03-31T04:56:52;10.30;99.90
16384;DHT22;8301;51.440;6.610;2023-03-31T04:59:20;10.30;99.90
16384;DHT22;8301;51.440;6.610;2023-03-31T05:01:47;10.30;99.90
16384;DHT22;8301;51.440;6.610;2023-03-31T05:04:13;10.30;99.90
16384;DHT22;8301;51.440;6.610;2023-03-31T05:06:42;10.30;99.90
16384;DHT22;8301;51.440;6.610;2023-03-31T05:09:09;10.30;99.90
16384;DHT22;8301;51.440;6.610;2023-03-31T05:11:36;10.20;99.90
16384;DHT22;8301;51.440;6.610;2023-03-31T05:14:03;10.30;99.90
16384;DHT22;8301;51.440;6.610;2023-03-31T05:16:30;10.20;99.90
16384;DHT22;8301;51.440;6.610;2023-03-31T05:18:57;10.20;99.90
16384;DHT22;8301;51.440;6.610;2023-03-31T05:21:26;10.20;99.90
16384;DHT22;8301;51.440;6.610;2023-03-31T05:23:54;10.20;99.90
16384;DHT22;8301;51.440;6.610;2023-03-31T05:26:29;10.20;99.90
16384;DHT22;8301;51.440;6.610;2023-03-31T05:28:55;10.20;99.90
16384;DHT22;8301;51.440;6.610;2023-03-31T05:31:22;10.20;99.90
16384;DHT22;8301;51.440;6.610;2023-03-31T05:33:49;10.20;99.90
16384;DHT22;8301;51.440;6.610;2023-03-31T05:36:17;10.20;99.90
16384;DHT22;8301;51.440;6.610;2023-03-31T05:38:45;10.20;99.90
16384;DHT22;8301;51.440;6.610;2023-03-31T05:41:22;10.30;99.90
16384;DHT22;8301;51.440;6.610;2023-03-31T05:43:48;10.30;99.90
16384;DHT22;8301;51.440;6.610;2023-03-31T05:46:17;10.30;99.90
16384;DHT22;8301;51.440;6.610;2023-03-31T05:48:45;10.30;99.90
16384;DHT22;8301;51.440;6.610;2023-03-31T05:51:13;10.30;99.90
16384;DHT22;8301;51.440;6.610;2023-03-31T05:53:39;10.30;99.90
16384;DHT22;8301;51.440;6.610;2023-03-31T05:56:17;10.40;99.90
16384;DHT22;8301;51.440;6.610;2023-03-31T05:58:43;10.40;99.90
16384;DHT22;8301;51.440;6.610;2023-03-31T06:01:12;10.40;99.90
16384;DHT22;8301;51.440;6.610;2023-03-31T06:03:39;10.40;99.90
16384;DHT22;8301;51.440;6.610;2023-03-31T06:06:07;10.30;99.90
16384;DHT22;8301;51.440;6.610;2023-03-31T06:08:34;10.30;99.90
16384;DHT22;8301;51.440;6.610;2023-03-31T06:11:03;10.30;99.90
16384;DHT22;8301;51.440;6.610;2023-03-31T06:13:31;10.30;99.90
16384;DHT22;8301;51.440;6.610;2023-03-31T06:15:58;10.30;99.90
16384;DHT22;8301;51.440;6.610;2023-03-31T06:18:27;10.30;99.90
16384;DHT22;8301;51.440;6.610;2023-03-31T06:20:54;10.30;99.90
16384;DHT22;8301;51.440;6.610;2023-03-31T06:23:21;10.30;99.90
16384;DHT22;8301;51.440;6.610;2023-03-31T06:25:48;10.20;99.90
16384;DHT22;8301;51.440;6.610;2023-03-31T06:28:16;10.20;99.90
16384;DHT22;8301;51.440;6.610;2023-03-31T06:30:43;10.20;99.90
16384;DHT22;8301;51.440;6.610;2023-03-31T06:33:10;10.30;99.90
16384;DHT22;8301;51.440;6.610;2023-03-31T06:35:38;10.30;99.90
16384;DHT22;8301;51.440;6.610;2023-03-31T06:38:06;10.30;99.90
16384;DHT22;8301;51.440;6.610;2023-03-31T06:40:33;10.20;99.90
16384;DHT22;8301;51.440;6.610;2023-03-31T06:43:01;10.20;99.90
16384;DHT22;8301;51.440;6.610;2023-03-31T06:45:28;10.30;99.90
16384;DHT22;8301;51.440;6.610;2023-03-31T06:47:55;10.20;99.90
16384;DHT22;8301;51.440;6.610;2023-03-31T06:50:21;10.20;99.90
16384;DHT22;8301;51.440;6.610;2023-03-31T06:52:48;10.20;99.90
16384;DHT22;8301;51.440;6.610;2023-03-31T06:55:17;10.20;99.90
16384;DHT22;8301;51.440;6.610;2023-03-31T06:57:44;10.20;99.90
16384;DHT22;8301;51.440;6.610;2023-03-31T07:00:11;10.20;99.90
16384;DHT22;8301;51.440;6.610;2023-03-31T07:02:39;10.20;99.90
16384;DHT22;8301;51.440;6.610;2023-03-31T07:05:06;10.20;99.90
16384;DHT22;8301;51.440;6.610;2023-03-31T07:07:33;10.20;99.90
16384;DHT22;8301;51.440;6.610;2023-03-31T07:10:00;10.20;99.90
16384;DHT22;8301;51.440;6.610;2023-03-31T07:12:27;10.20;99.90
16384;DHT22;8301;51.440;6.610;2023-03-31T07:14:53;10.20;99.90
16384;DHT22;8301;51.440;6.610;2023-03-31T07:17:21;10.20;99.90
16384;DHT22;8301;51.440;6.610;2023-03-31T07:19:49;10.20;99.90
16384;DHT22;8301;51.440;6.610;2023-03-31T07:22:16;10.20;99.90
16384;DHT22;8301;51.440;6.610;2023-03-31T07:24:43;10.20;99.90
16384;DHT22;8301;51.440;6.610;2023-03-31T07:27:10;10.20;99.90
16384;DHT22;8301;51.440;6.610;2023-03-31T07:29:36;10.20;99.90
16384;DHT22;8301;51.440;6.610;2023-03-31T07:32:03;10.20;99.90
16384;DHT22;8301;51.440;6.610;2023-03-31T07:34:30;10.20;99.90
16384;DHT22;8301;51.440;6.610;2023-03-31T07:36:57;10.20;99.90
16384;DHT22;8301;51.440;6.610;2023-03-31T07:39:24;10.20;99.90
16384;DHT22;8301;51.440;6.610;2023-03-31T07:41:51;10.10;99.90
16384;DHT22;8301;51.440;6.610;2023-03-31T07:44:18;10.10;99.90
16384;DHT22;8301;51.440;6.610;2023-03-31T07:46:46;10.10;99.90
16384;DHT22;8301;51.440;6.610;2023-03-31T07:49:14;10.10;99.90
16384;DHT22;8301;51.440;6.610;2023-03-31T07:51:41;10.10;99.90
16384;DHT22;8301;51.440;6.610;2023-03-31T07:54:08;10.10;99.90
16384;DHT22;8301;51.440;6.610;2023-03-31T07:56:35;10.10;99.90
16384;DHT22;8301;51.440;6.610;2023-03-31T07:59:02;10.00;99.90
16384;DHT22;8301;51.440;6.610;2023-03-31T08:01:30;10.00;99.90
16384;DHT22;8301;51.440;6.610;2023-03-31T08:03:56;10.10;99.90
16384;DHT22;8301;51.440;6.610;2023-03-31T08:06:24;10.20;99.90
16384;DHT22;8301;51.440;6.610;2023-03-31T08:08:51;10.20;99.90
16384;DHT22;8301;51.440;6.610;2023-03-31T08:11:18;10.30;99.90
16384;DHT22;8301;51.440;6.610;2023-03-31T08:13:46;10.30;99.90
16384;DHT22;8301;51.440;6.610;2023-03-31T08:16:12;10.40;99.90
16384;DHT22;8301;51.440;6.610;2023-03-31T08:18:39;10.60;99.90
16384;DHT22;8301;51.440;6.610;2023-03-31T08:21:06;10.60;99.90
16384;DHT22;8301;51.440;6.610;2023-03-31T08:23:35;10.70;99.90
16384;DHT22;8301;51.440;6.610;2023-03-31T08:26:16;10.80;99.90
16384;DHT22;8301;51.440;6.610;2023-03-31T08:28:46;10.90;99.90
16384;DHT22;8301;51.440;6.610;2023-03-31T08:31:14;10.90;99.90
16384;DHT22;8301;51.440;6.610;2023-03-31T08:33:42;11.00;99.90
16384;DHT22;8301;51.440;6.610;2023-03-31T08:36:10;11.00;99.90
16384;DHT22;8301;51.440;6.610;2023-03-31T08:38:37;11.10;99.90
16384;DHT22;8301;51.440;6.610;2023-03-31T08:41:20;11.10;99.90
16384;DHT22;8301;51.440;6.610;2023-03-31T08:43:36;11.20;99.90
16384;DHT22;8301;51.440;6.610;2023-03-31T08:46:09;11.20;99.90
16384;DHT22;8301;51.440;6.610;2023-03-31T08:48:37;11.30;99.90
16384;DHT22;8301;51.440;6.610;2023-03-31T08:56:27;11.20;99.90
16384;DHT22;8301;51.440;6.610;2023-03-31T08:59:02;11.30;99.90
16384;DHT22;8301;51.440;6.610;2023-03-31T09:09:00;11.30;99.90
16384;DHT22;8301;51.440;6.610;2023-03-31T09:11:37;11.30;99.90
16384;DHT22;8301;51.440;6.610;2023-03-31T09:19:00;11.40;99.90
16384;DHT22;8301;51.440;6.610;2023-03-31T09:21:29;11.40;99.90
16384;DHT22;8301;51.440;6.610;2023-03-31T09:24:05;11.50;99.90
16384;DHT22;8301;51.440;6.610;2023-03-31T09:29:01;11.70;99.90
16384;DHT22;8301;51.440;6.610;2023-03-31T09:31:29;11.80;99.90
16384;DHT22;8301;51.440;6.610;2023-03-31T09:33:58;11.90;99.90
16384;DHT22;8301;51.440;6.610;2023-03-31T09:36:26;12.00;99.90
16384;DHT22;8301;51.440;6.610;2023-03-31T09:38:53;12.20;99.90
16384;DHT22;8301;51.440;6.610;2023-03-31T09:41:20;12.20;99.90
16384;DHT22;8301;51.440;6.610;2023-03-31T09:43:48;12.40;99.90
16384;DHT22;8301;51.440;6.610;2023-03-31T09:48:48;12.70;99.90
16384;DHT22;8301;51.440;6.610;2023-03-31T09:51:22;13.00;99.90
16384;DHT22;8301;51.440;6.610;2023-03-31T09:53:49;13.30;99.90
16384;DHT22;8301;51.440;6.610;2023-03-31T09:59:03;13.30;99.90
16384;DHT22;8301;51.440;6.610;2023-03-31T10:01:30;13.00;99.90
16384;DHT22;8301;51.440;6.610;2023-03-31T10:03:57;12.60;99.90
16384;DHT22;8301;51.440;6.610;2023-03-31T10:06:24;12.10;99.90
16384;DHT22;8301;51.440;6.610;2023-03-31T10:09:01;11.90;99.90
16384;DHT22;8301;51.440;6.610;2023-03-31T10:11:20;11.80;99.90
16384;DHT22;8301;51.440;6.610;2023-03-31T10:16:32;12.10;99.90
16384;DHT22;8301;51.440;6.610;2023-03-31T10:21:48;12.20;99.90
16384;DHT22;8301;51.440;6.610;2023-03-31T10:24:19;12.30;99.90
16384;DHT22;8301;51.440;6.610;2023-03-31T10:26:51;12.40;99.90
16384;DHT22;8301;51.440;6.610;2023-03-31T10:29:16;12.50;99.90
16384;DHT22;8301;51.440;6.610;2023-03-31T10:31:43;12.80;99.90
16384;DHT22;8301;51.440;6.610;2023-03-31T10:34:12;12.90;99.90
16384;DHT22;8301;51.440;6.610;2023-03-31T10:36:43;13.10;99.90
16384;DHT22;8301;51.440;6.610;2023-03-31T10:39:10;13.20;99.90
16384;DHT22;8301;51.440;6.610;2023-03-31T10:41:37;13.30;99.90
16384;DHT22;8301;51.440;6.610;2023-03-31T10:44:04;13.10;99.90
16384;DHT22;8301;51.440;6.610;2023-03-31T10:49:19;12.50;99.90
16384;DHT22;8301;51.440;6.610;2023-03-31T10:54:21;12.30;99.90
16384;DHT22;8301;51.440;6.610;2023-03-31T10:56:49;12.30;99.90
16384;DHT22;8301;51.440;6.610;2023-03-31T11:04:58;12.30;99.90
16384;DHT22;8301;51.440;6.610;2023-03-31T11:12:42;12.40;99.90
16384;DHT22;8301;51.440;6.610;2023-03-31T11:15:18;12.50;99.90
16384;DHT22;8301;51.440;6.610;2023-03-31T11:20:40;12.50;99.90
16384;DHT22;8301;51.440;6.610;2023-03-31T11:23:50;12.60;99.90
16384;DHT22;8301;51.440;6.610;2023-03-31T11:25:39;12.70;99.90
16384;DHT22;8301;51.440;6.610;2023-03-31T11:38:43;12.80;99.90
16384;DHT22;8301;51.440;6.610;2023-03-31T11:41:15;12.80;1.00
16384;DHT22;8301;51.440;6.610;2023-03-31T11:43:46;12.80;93.10
16384;DHT22;8301;51.440;6.610;2023-03-31T11:46:18;12.90;1.00
16384;DHT22;8301;51.440;6.610;2023-03-31T11:51:59;13.20;1.00
16384;DHT22;8301;51.440;6.610;2023-03-31T11:53:41;13.30;35.30
16384;DHT22;8301;51.440;6.610;2023-03-31T11:56:09;13.40;1.00
16384;DHT22;8301;51.440;6.610;2023-03-31T11:58:39;13.50;1.00
16384;DHT22;8301;51.440;6.610;2023-03-31T12:03:55;13.20;99.90
16384;DHT22;8301;51.440;6.610;2023-03-31T12:06:21;13.20;1.00
16384;DHT22;8301;51.440;6.610;2023-03-31T12:08:57;13.20;1.00
16384;DHT22;8301;51.440;6.610;2023-03-31T12:16:44;13.20;99.90
16384;DHT22;8301;51.440;6.610;2023-03-31T12:19:16;13.40;99.90
16384;DHT22;8301;51.440;6.610;2023-03-31T12:21:46;13.50;1.00
16384;DHT22;8301;51.440;6.610;2023-03-31T12:24:11;13.60;1.00
16384;DHT22;8301;51.440;6.610;2023-03-31T12:31:48;13.70;1.00
16384;DHT22;8301;51.440;6.610;2023-03-31T12:34:16;13.70;1.00
16384;DHT22;8301;51.440;6.610;2023-03-31T12:39:33;13.70;99.90
16384;DHT22;8301;51.440;6.610;2023-03-31T12:52:41;13.70;99.90
16384;DHT22;8301;51.440;6.610;2023-03-31T12:57:50;13.70;1.00
16384;DHT22;8301;51.440;6.610;2023-03-31T13:00:21;13.80;99.90
16384;DHT22;8301;51.440;6.610;2023-03-31T13:02:48;14.20;1.00
16384;DHT22;8301;51.440;6.610;2023-03-31T13:08:02;14.20;99.90
16384;DHT22;8301;51.440;6.610;2023-03-31T13:10:29;14.20;1.00
16384;DHT22;8301;51.440;6.610;2023-03-31T13:13:10;14.20;1.00
16384;DHT22;8301;51.440;6.610;2023-03-31T13:15:33;14.20;1.00
16384;DHT22;8301;51.440;6.610;2023-03-31T13:18:02;14.10;1.00
16384;DHT22;8301;51.440;6.610;2023-03-31T13:20:30;14.20;99.90
16384;DHT22;8301;51.440;6.610;2023-03-31T13:23:12;14.10;99.90
16384;DHT22;8301;51.440;6.610;2023-03-31T13:28:14;14.20;1.00
16384;DHT22;8301;51.440;6.610;2023-03-31T13:43:54;14.60;99.90
16384;DHT22;8301;51.440;6.610;2023-03-31T13:51:49;14.80;99.90
16384;DHT22;8301;51.440;6.610;2023-03-31T13:59:22;14.60;1.00
16384;DHT22;8301;51.440;6.610;2023-03-31T14:04:44;14.70;1.00
16384;DHT22;8301;51.440;6.610;2023-03-31T14:07:08;14.80;1.00
16384;DHT22;8301;51.440;6.610;2023-03-31T14:09:39;14.80;1.00
16384;DHT22;8301;51.440;6.610;2023-03-31T14:14:52;14.70;1.00
16384;DHT22;8301;51.440;6.610;2023-03-31T14:17:20;14.60;99.90
16384;DHT22;8301;51.440;6.610;2023-03-31T14:19:51;14.40;95.30
16384;DHT22;8301;51.440;6.610;2023-03-31T14:22:25;14.30;1.00
16384;DHT22;8301;51.440;6.610;2023-03-31T14:27:32;13.90;99.90
16384;DHT22;8301;51.440;6.610;2023-03-31T14:30:04;13.70;1.00
16384;DHT22;8301;51.440;6.610;2023-03-31T14:35:19;12.70;99.90
16384;DHT22;8301;51.440;6.610;2023-03-31T14:37:42;12.30;99.90
16384;DHT22;8301;51.440;6.610;2023-03-31T14:40:11;12.10;99.90
16384;DHT22;8301;51.440;6.610;2023-03-31T14:42:39;12.00;99.90
16384;DHT22;8301;51.440;6.610;2023-03-31T14:45:29;12.00;99.90
16384;DHT22;8301;51.440;6.610;2023-03-31T14:47:56;11.80;99.90
16384;DHT22;8301;51.440;6.610;2023-03-31T14:50:30;11.80;99.90
16384;DHT22;8301;51.440;6.610;2023-03-31T14:52:57;11.90;99.90
16384;DHT22;8301;51.440;6.610;2023-03-31T14:55:27;12.10;99.90
16384;DHT22;8301;51.440;6.610;2023-03-31T14:57:55;12.30;99.90
16384;DHT22;8301;51.440;6.610;2023-03-31T15:00:32;12.40;99.90
16384;DHT22;8301;51.440;6.610;2023-03-31T15:02:59;12.40;99.90
16384;DHT22;8301;51.440;6.610;2023-03-31T15:05:29;12.40;99.90
16384;DHT22;8301;51.440;6.610;2023-03-31T15:07:56;12.50;99.90
16384;DHT22;8301;51.440;6.610;2023-03-31T15:10:24;12.60;99.90
16384;DHT22;8301;51.440;6.610;2023-03-31T15:12:59;12.50;99.90
16384;DHT22;8301;51.440;6.610;2023-03-31T15:15:27;12.40;1.00
16384;DHT22;8301;51.440;6.610;2023-03-31T15:17:54;12.40;99.90
16384;DHT22;8301;51.440;6.610;2023-03-31T15:22:53;12.40;56.70
16384;DHT22;8301;51.440;6.610;2023-03-31T15:25:35;12.40;1.00
16384;DHT22;8301;51.440;6.610;2023-03-31T15:28:11;12.50;1.00
16384;DHT22;8301;51.440;6.610;2023-03-31T15:30:39;12.60;16.30
16384;DHT22;8301;51.440;6.610;2023-03-31T15:33:06;12.80;1.00
16384;DHT22;8301;51.440;6.610;2023-03-31T15:35:34;12.70;99.90
16384;DHT22;8301;51.440;6.610;2023-03-31T15:38:03;12.90;99.90
16384;DHT22;8301;51.440;6.610;2023-03-31T15:40:34;12.80;1.00
16384;DHT22;8301;51.440;6.610;2023-03-31T15:43:03;12.80;1.00
16384;DHT22;8301;51.440;6.610;2023-03-31T15:45:47;12.70;1.00
16384;DHT22;8301;51.440;6.610;2023-03-31T15:48:37;12.70;1.00
16384;DHT22;8301;51.440;6.610;2023-03-31T15:50:43;12.50;1.00
16384;DHT22;8301;51.440;6.610;2023-03-31T15:53:27;12.50;1.00
16384;DHT22;8301;51.440;6.610;2023-03-31T15:55:54;12.50;99.90
16384;DHT22;8301;51.440;6.610;2023-03-31T15:58:44;12.50;1.00
16384;DHT22;8301;51.440;6.610;2023-03-31T16:00:53;12.50;1.00
16384;DHT22;8301;51.440;6.610;2023-03-31T16:03:35;12.50;1.00
16384;DHT22;8301;51.440;6.610;2023-03-31T16:06:08;12.40;99.90
16384;DHT22;8301;51.440;6.610;2023-03-31T16:08:37;12.40;1.00
16384;DHT22;8301;51.440;6.610;2023-03-31T16:11:14;12.40;1.00
16384;DHT22;8301;51.440;6.610;2023-03-31T16:13:37;12.40;99.90
16384;DHT22;8301;51.440;6.610;2023-03-31T16:16:11;12.30;99.90
16384;DHT22;8301;51.440;6.610;2023-03-31T16:18:54;12.10;1.00
16384;DHT22;8301;51.440;6.610;2023-03-31T16:21:23;12.00;1.00
16384;DHT22;8301;51.440;6.610;2023-03-31T16:23:49;11.90;1.00
16384;DHT22;8301;51.440;6.610;2023-03-31T16:26:19;11.90;99.90
16384;DHT22;8301;51.440;6.610;2023-03-31T16:28:44;11.70;99.90
16384;DHT22;8301;51.440;6.610;2023-03-31T16:31:26;11.70;99.90
16384;DHT22;8301;51.440;6.610;2023-03-31T16:34:03;11.70;99.90
16384;DHT22;8301;51.440;6.610;2023-03-31T16:36:08;11.60;99.90
16384;DHT22;8301;51.440;6.610;2023-03-31T16:38:37;11.60;99.90
16384;DHT22;8301;51.440;6.610;2023-03-31T16:41:05;11.60;99.90
16384;DHT22;8301;51.440;6.610;2023-03-31T16:43:34;11.60;99.90
16384;DHT22;8301;51.440;6.610;2023-03-31T16:46:02;11.50;99.90
16384;DHT22;8301;51.440;6.610;2023-03-31T16:48:29;11.50;99.90
16384;DHT22;8301;51.440;6.610;2023-03-31T16:50:58;11.50;99.90
16384;DHT22;8301;51.440;6.610;2023-03-31T16:53:29;11.50;99.90
16384;DHT22;8301;51.440;6.610;2023-03-31T16:55:56;11.50;99.90
16384;DHT22;8301;51.440;6.610;2023-03-31T16:58:23;11.50;99.90
16384;DHT22;8301;51.440;6.610;2023-03-31T17:00:51;11.40;99.90
16384;DHT22;8301;51.440;6.610;2023-03-31T17:03:17;11.40;99.90
16384;DHT22;8301;51.440;6.610;2023-03-31T17:05:45;11.40;99.90
16384;DHT22;8301;51.440;6.610;2023-03-31T17:08:13;11.20;99.90
16384;DHT22;8301;51.440;6.610;2023-03-31T17:10:40;11.10;99.90
16384;DHT22;8301;51.440;6.610;2023-03-31T17:13:08;11.00;99.90
16384;DHT22;8301;51.440;6.610;2023-03-31T17:15:34;11.00;99.90
16384;DHT22;8301;51.440;6.610;2023-03-31T17:18:02;10.90;99.90
16384;DHT22;8301;51.440;6.610;2023-03-31T17:20:29;10.80;99.90
16384;DHT22;8301;51.440;6.610;2023-03-31T17:22:57;10.80;99.90
16384;DHT22;8301;51.440;6.610;2023-03-31T17:25:24;10.80;99.90
16384;DHT22;8301;51.440;6.610;2023-03-31T17:27:52;10.70;99.90
16384;DHT22;8301;51.440;6.610;2023-03-31T17:30:22;10.70;99.90
16384;DHT22;8301;51.440;6.610;2023-03-31T17:32:49;10.60;99.90
16384;DHT22;8301;51.440;6.610;2023-03-31T17:35:16;10.60;99.90
16384;DHT22;8301;51.440;6.610;2023-03-31T17:37:45;10.70;99.90
16384;DHT22;8301;51.440;6.610;2023-03-31T17:40:12;10.70;99.90
16384;DHT22;8301;51.440;6.610;2023-03-31T17:42:40;10.60;99.90
16384;DHT22;8301;51.440;6.610;2023-03-31T17:45:07;10.60;99.90
16384;DHT22;8301;51.440;6.610;2023-03-31T17:47:34;10.60;99.90
16384;DHT22;8301;51.440;6.610;2023-03-31T17:50:02;10.60;99.90
16384;DHT22;8301;51.440;6.610;2023-03-31T17:52:29;10.70;99.90
16384;DHT22;8301;51.440;6.610;2023-03-31T17:54:57;10.70;99.90
16384;DHT22;8301;51.440;6.610;2023-03-31T17:57:24;10.70;99.90
16384;DHT22;8301;51.440;6.610;2023-03-31T17:59:51;10.70;99.90
16384;DHT22;8301;51.440;6.610;2023-03-31T18:02:18;10.70;99.90
16384;DHT22;8301;51.440;6.610;2023-03-31T18:04:45;10.70;99.90
16384;DHT22;8301;51.440;6.610;2023-03-31T18:07:12;10.70;99.90
16384;DHT22;8301;51.440;6.610;2023-03-31T18:09:39;10.70;99.90
16384;DHT22;8301;51.440;6.610;2023-03-31T18:12:05;10.70;99.90
16384;DHT22;8301;51.440;6.610;2023-03-31T18:14:33;10.70;99.90
16384;DHT22;8301;51.440;6.610;2023-03-31T18:17:01;10.70;99.90
16384;DHT22;8301;51.440;6.610;2023-03-31T18:19:29;10.70;99.90
16384;DHT22;8301;51.440;6.610;2023-03-31T18:21:57;10.60;99.90
16384;DHT22;8301;51.440;6.610;2023-03-31T18:24:23;10.60;99.90
16384;DHT22;8301;51.440;6.610;2023-03-31T18:26:50;10.60;99.90
16384;DHT22;8301;51.440;6.610;2023-03-31T18:29:17;10.60;99.90
16384;DHT22;8301;51.440;6.610;2023-03-31T18:31:46;10.60;99.90
16384;DHT22;8301;51.440;6.610;2023-03-31T18:34:13;10.60;99.90
16384;DHT22;8301;51.440;6.610;2023-03-31T18:36:47;10.60;99.90
16384;DHT22;8301;51.440;6.610;2023-03-31T18:39:16;10.60;99.90
16384;DHT22;8301;51.440;6.610;2023-03-31T18:41:45;10.60;99.90
16384;DHT22;8301;51.440;6.610;2023-03-31T18:44:14;10.60;99.90
16384;DHT22;8301;51.440;6.610;2023-03-31T18:46:42;10.60;99.90
16384;DHT22;8301;51.440;6.610;2023-03-31T18:49:10;10.60;99.90
16384;DHT22;8301;51.440;6.610;2023-03-31T18:51:37;10.60;99.90